createdAt,value
2019-03-22T00:02:27.558Z,169.33
2019-03-22T00:05:01.928Z,163.33
2019-03-22T00:07:33.854Z,165.53
2019-03-22T00:10:05.590Z,187.63
2019-03-22T00:12:39.139Z,172.40
2019-03-22T00:15:10.651Z,164.67
2019-03-22T00:17:42.689Z,226.67
2019-03-22T00:20:17.997Z,170.70
2019-03-22T00:22:49.174Z,203.80
2019-03-22T00:25:22.571Z,217.50
2019-03-22T00:27:54.941Z,240.37
2019-03-22T00:30:29.239Z,240.63
2019-03-22T00:33:00.477Z,245.30
2019-03-22T00:35:31.996Z,264.10
2019-03-22T00:38:08.263Z,252.80
2019-03-22T00:40:41.838Z,212.80
2019-03-22T00:43:14.087Z,246.70
2019-03-22T00:45:45.946Z,272.07
2019-03-22T00:48:24.955Z,256.13
2019-03-22T00:51:01.059Z,295.63
2019-03-22T00:53:34.373Z,291.23
2019-03-22T00:56:06.224Z,282.27
2019-03-22T00:58:38.898Z,321.03
2019-03-22T01:01:12.413Z,400.23
2019-03-22T01:03:45.481Z,364.63
2019-03-22T01:06:17.447Z,363.47
2019-03-22T01:08:49.509Z,377.73
2019-03-22T01:11:22.502Z,466.53
2019-03-22T01:13:54.054Z,439.17
2019-03-22T01:16:25.980Z,583.97
2019-03-22T01:18:57.459Z,607.20
2019-03-22T01:21:29.026Z,703.00
2019-03-22T01:24:01.457Z,515.47
2019-03-22T01:26:35.842Z,471.13
2019-03-22T01:29:07.137Z,549.30
2019-03-22T01:31:40.669Z,463.67
2019-03-22T01:34:13.594Z,349.40
2019-03-22T01:36:44.799Z,579.83
2019-03-22T01:39:16.098Z,489.23
2019-03-22T01:41:47.615Z,504.00
2019-03-22T01:44:19.674Z,396.57
2019-03-22T01:46:51.377Z,408.00
2019-03-22T01:49:23.595Z,740.10
2019-03-22T02:08:25.313Z,674.13
2019-03-22T02:11:01.034Z,399.53
2019-03-22T02:13:34.490Z,428.47
2019-03-22T02:16:09.071Z,543.97
2019-03-22T02:18:42.892Z,837.60
2019-03-22T02:21:16.215Z,740.30
2019-03-22T02:23:52.054Z,735.83
2019-03-22T02:26:23.427Z,722.40
2019-03-22T02:28:55.564Z,442.57
2019-03-22T02:31:27.339Z,398.90
2019-03-22T02:34:02.779Z,665.40
2019-03-22T02:36:35.175Z,371.20
2019-03-22T02:39:12.313Z,735.73
2019-03-22T02:41:44.510Z,351.40
2019-03-22T02:44:17.362Z,444.67
2019-03-22T02:46:55.624Z,515.90
2019-03-22T02:49:29.582Z,369.90
2019-03-22T02:52:02.474Z,311.33
2019-03-22T02:54:34.053Z,595.93
2019-03-22T02:57:06.358Z,483.10
2019-03-22T02:59:38.099Z,532.57
2019-03-22T03:02:10.623Z,586.90
2019-03-22T03:04:43.776Z,601.43
2019-03-22T03:07:16.029Z,522.83
2019-03-22T03:09:50.630Z,713.77
2019-03-22T03:12:23.183Z,480.50
2019-03-22T03:14:58.188Z,460.73
2019-03-22T03:17:31.230Z,716.73
2019-03-22T03:20:03.421Z,424.47
2019-03-22T03:22:35.065Z,486.33
2019-03-22T03:25:08.471Z,445.83
2019-03-22T03:27:40.862Z,574.83
2019-03-22T03:30:14.166Z,594.13
2019-03-22T03:32:50.672Z,525.73
2019-03-22T03:35:37.491Z,811.63
2019-03-22T03:38:35.383Z,362.33
2019-03-22T03:41:08.859Z,632.30
2019-03-22T03:43:40.545Z,370.03
2019-03-22T03:46:12.023Z,656.80
2019-03-22T03:48:47.234Z,572.43
2019-03-22T03:51:27.266Z,666.97
2019-03-22T03:53:59.475Z,654.93
2019-03-22T03:56:31.329Z,842.97
2019-03-22T03:59:03.987Z,624.40
2019-03-22T04:01:37.342Z,1100.60
2019-03-22T04:04:09.048Z,533.83
2019-03-22T04:06:45.439Z,897.70
2019-03-22T04:09:20.595Z,872.93
2019-03-22T04:11:53.468Z,423.77
2019-03-22T04:14:26.933Z,1007.13
2019-03-22T04:16:58.897Z,679.33
2019-03-22T04:19:30.274Z,871.00
2019-03-22T04:22:05.868Z,872.57
2019-03-22T04:24:44.895Z,747.43
2019-03-22T04:27:18.731Z,604.00
2019-03-22T04:29:53.290Z,566.70
2019-03-22T04:32:29.593Z,724.07
2019-03-22T04:35:02.499Z,795.00
2019-03-22T04:37:50.180Z,686.70
2019-03-22T04:40:25.789Z,588.07
2019-03-22T04:43:00.131Z,597.47
2019-03-22T04:45:34.755Z,508.33
2019-03-22T04:48:12.206Z,625.03
2019-03-22T04:50:47.040Z,747.47
2019-03-22T04:53:24.129Z,791.50
2019-03-22T04:56:00.433Z,852.07
2019-03-22T04:58:32.618Z,620.70
2019-03-22T05:01:05.728Z,678.97
2019-03-22T05:03:38.815Z,771.17
2019-03-22T05:06:14.647Z,939.03
2019-03-22T05:08:48.078Z,1081.93
2019-03-22T05:11:23.246Z,807.63
2019-03-22T05:13:58.170Z,739.97
2019-03-22T05:16:31.943Z,810.23
2019-03-22T05:19:04.534Z,802.50
2019-03-22T05:21:38.570Z,605.37
2019-03-22T05:24:12.310Z,884.67
2019-03-22T05:26:47.569Z,652.30
2019-03-22T05:29:30.136Z,755.97
2019-03-22T05:32:13.300Z,787.17
2019-03-22T05:34:44.590Z,652.23
2019-03-22T05:37:15.879Z,560.43
2019-03-22T05:39:50.844Z,960.37
2019-03-22T05:42:22.944Z,702.83
2019-03-22T05:44:55.478Z,662.23
2019-03-22T05:47:28.228Z,772.27
2019-03-22T05:49:59.569Z,513.90
2019-03-22T05:52:32.943Z,659.20
2019-03-22T05:55:05.524Z,812.60
2019-03-22T05:57:36.819Z,609.40
2019-03-22T06:00:10.298Z,514.97
2019-03-22T06:02:41.604Z,743.07
2019-03-22T06:05:13.132Z,746.13
2019-03-22T06:07:47.462Z,731.03
2019-03-22T06:10:21.360Z,634.37
2019-03-22T06:12:57.083Z,661.93
2019-03-22T06:15:30.110Z,913.07
2019-03-22T06:18:03.699Z,638.00
2019-03-22T06:20:35.037Z,559.53
2019-03-22T06:23:08.256Z,880.40
2019-03-22T06:25:39.734Z,750.43
2019-03-22T06:28:11.799Z,657.90
2019-03-22T06:30:43.307Z,671.43
2019-03-22T06:33:14.985Z,747.57
2019-03-22T06:35:47.241Z,712.27
2019-03-22T06:38:18.647Z,753.50
2019-03-22T06:40:56.550Z,695.53
2019-03-22T06:43:28.090Z,798.77
2019-03-22T06:45:59.437Z,693.73
2019-03-22T06:48:34.342Z,690.47
2019-03-22T06:51:05.828Z,626.30
2019-03-22T06:53:39.394Z,512.57
2019-03-22T06:56:13.685Z,442.30
2019-03-22T06:58:45.100Z,600.13
2019-03-22T07:01:19.281Z,610.13
2019-03-22T07:03:51.810Z,617.03
2019-03-22T07:06:24.094Z,452.20
2019-03-22T07:08:58.066Z,563.07
2019-03-22T07:11:33.355Z,564.40
2019-03-22T07:14:05.737Z,498.63
2019-03-22T07:16:40.811Z,521.27
2019-03-22T07:19:12.237Z,495.10
2019-03-22T07:21:58.021Z,574.47
2019-03-22T07:24:29.337Z,479.13
2019-03-22T07:27:07.195Z,524.37
2019-03-22T07:29:39.210Z,534.00
2019-03-22T07:32:13.590Z,509.80
2019-03-22T07:34:44.995Z,506.07
2019-03-22T07:37:17.627Z,429.43
2019-03-22T07:39:50.043Z,381.63
2019-03-22T07:42:23.026Z,332.13
2019-03-22T07:44:54.801Z,463.53
2019-03-22T07:47:28.074Z,461.50
2019-03-22T07:50:01.756Z,340.60
2019-03-22T07:52:36.156Z,419.03
2019-03-22T07:55:09.103Z,314.43
2019-03-22T07:57:41.430Z,399.67
2019-03-22T08:00:14.758Z,452.97
2019-03-22T08:02:46.057Z,355.17
2019-03-22T08:05:17.345Z,318.87
2019-03-22T08:07:48.570Z,273.80
2019-03-22T08:10:19.825Z,231.40
2019-03-22T08:12:52.418Z,272.00
2019-03-22T08:15:33.479Z,275.23
2019-03-22T08:18:04.756Z,259.90
2019-03-22T08:20:38.625Z,259.77
2019-03-22T08:23:19.648Z,288.30
2019-03-22T08:25:52.278Z,239.20
2019-03-22T08:28:24.342Z,300.60
2019-03-22T08:30:56.500Z,268.03
2019-03-22T08:33:27.843Z,249.23
2019-03-22T08:35:59.231Z,275.67
2019-03-22T08:38:30.763Z,242.27
2019-03-22T08:41:03.648Z,268.20
2019-03-22T08:43:35.673Z,248.23
2019-03-22T08:46:07.274Z,218.90
2019-03-22T08:48:40.390Z,232.87
2019-03-22T08:51:12.024Z,247.03
2019-03-22T08:53:54.639Z,217.43
2019-03-22T08:56:17.762Z,188.23
2019-03-22T08:58:51.098Z,179.07
2019-03-22T09:01:22.880Z,189.63
2019-03-22T09:03:54.232Z,199.00
2019-03-22T09:06:27.082Z,197.30
2019-03-22T09:09:00.643Z,169.77
2019-03-22T09:11:38.772Z,190.60
2019-03-22T09:14:10.398Z,186.97
2019-03-22T09:16:41.909Z,169.70
2019-03-22T09:19:16.054Z,181.77
2019-03-22T09:21:47.341Z,187.67
2019-03-22T09:24:19.134Z,180.43
2019-03-22T09:26:51.102Z,193.40
2019-03-22T09:29:22.498Z,200.93
2019-03-22T09:31:53.954Z,190.17
2019-03-22T09:34:33.650Z,205.50
2019-03-22T09:36:58.474Z,208.80
2019-03-22T09:39:30.345Z,207.93
2019-03-22T09:42:01.798Z,193.77
2019-03-22T09:44:42.839Z,203.17
2019-03-22T09:47:06.135Z,212.50
2019-03-22T09:49:37.610Z,228.53
2019-03-22T09:52:09.626Z,210.40
2019-03-22T09:54:41.860Z,198.77
2019-03-22T09:57:13.233Z,184.83
2019-03-22T09:59:46.337Z,192.73
2019-03-22T10:02:18.483Z,187.47
2019-03-22T10:04:50.516Z,198.30
2019-03-22T10:07:21.996Z,194.53
2019-03-22T10:09:53.674Z,192.03
2019-03-22T10:12:25.058Z,191.70
2019-03-22T10:14:56.406Z,189.03
2019-03-22T10:17:27.857Z,192.33
2019-03-22T10:19:59.196Z,176.53
2019-03-22T10:22:30.631Z,178.67
2019-03-22T10:25:02.025Z,173.83
2019-03-22T10:27:33.391Z,173.60
2019-03-22T10:30:06.356Z,174.20
2019-03-22T10:32:37.708Z,175.97
2019-03-22T10:35:09.307Z,176.53
2019-03-22T10:38:58.040Z,168.93
2019-03-22T10:41:34.594Z,171.17
2019-03-22T10:44:05.962Z,170.63
2019-03-22T10:46:37.478Z,165.20
2019-03-22T10:49:08.814Z,164.87
2019-03-22T10:51:40.129Z,161.03
2019-03-22T10:54:13.726Z,164.97
2019-03-22T10:56:45.602Z,157.70
2019-03-22T10:59:17.886Z,155.87
2019-03-22T11:02:02.678Z,148.07
2019-03-22T11:04:23.009Z,155.90
2019-03-22T11:06:55.125Z,150.03
2019-03-22T11:09:26.683Z,149.87
2019-03-22T11:11:59.549Z,148.47
2019-03-22T11:14:30.793Z,146.57
2019-03-22T11:17:02.583Z,154.27
2019-03-22T11:19:33.934Z,143.83
2019-03-22T11:22:07.843Z,141.53
2019-03-22T11:24:41.882Z,141.37
2019-03-22T11:27:13.931Z,144.50
2019-03-22T11:29:45.622Z,147.93
2019-03-22T11:32:18.110Z,134.67
2019-03-22T11:34:49.585Z,142.30
2019-03-22T11:37:20.953Z,124.30
2019-03-22T11:39:53.181Z,129.50
2019-03-22T11:42:26.480Z,119.57
2019-03-22T11:45:00.737Z,132.17
2019-03-22T11:47:32.140Z,127.00
2019-03-22T11:50:04.294Z,124.67
2019-03-22T11:52:36.334Z,111.97
2019-03-22T11:55:09.637Z,109.60
2019-03-22T11:57:41.173Z,120.57
2019-03-22T12:00:18.890Z,116.07
2019-03-22T12:02:51.905Z,114.60
2019-03-22T12:05:23.814Z,114.63
2019-03-22T12:07:55.109Z,105.20
2019-03-22T12:10:26.499Z,100.33
2019-03-22T12:12:57.889Z,107.73
2019-03-22T12:15:31.892Z,104.90
2019-03-22T12:18:06.466Z,110.40
2019-03-22T12:20:39.456Z,107.07
2019-03-22T12:23:10.837Z,100.67
2019-03-22T12:25:43.171Z,103.20
2019-03-22T12:28:15.188Z,99.20
2019-03-22T12:30:46.850Z,97.87
2019-03-22T12:33:19.785Z,105.30
2019-03-22T12:35:52.558Z,100.27
2019-03-22T12:38:24.861Z,90.50
2019-03-22T12:40:57.745Z,90.60
2019-03-22T12:43:31.573Z,93.40
2019-03-22T12:46:02.898Z,91.50
2019-03-22T12:48:36.398Z,83.00
2019-03-22T12:51:09.315Z,91.40
2019-03-22T12:53:46.363Z,88.13
2019-03-22T12:56:20.988Z,87.13
2019-03-22T12:58:52.247Z,84.43
2019-03-22T13:01:26.139Z,79.40
2019-03-22T13:03:58.347Z,78.80
2019-03-22T13:06:30.436Z,86.97
2019-03-22T13:09:05.997Z,85.43
2019-03-22T13:11:38.158Z,77.80
2019-03-22T13:14:11.518Z,70.53
2019-03-22T13:16:42.949Z,73.57
2019-03-22T13:19:14.315Z,76.07
2019-03-22T13:21:46.618Z,70.53
2019-03-22T13:24:17.954Z,63.43
2019-03-22T13:26:49.375Z,64.03
2019-03-22T13:29:20.575Z,66.17
2019-03-22T13:31:51.904Z,61.17
2019-03-22T13:34:23.321Z,64.03
2019-03-22T13:36:55.197Z,65.00
2019-03-22T13:39:26.560Z,66.37
2019-03-22T13:41:57.898Z,59.40
2019-03-22T13:44:29.262Z,62.03
2019-03-22T13:47:01.747Z,60.30
2019-03-22T13:49:34.322Z,58.17
2019-03-22T13:52:08.178Z,56.13
2019-03-22T13:54:42.775Z,58.90
2019-03-22T13:57:14.205Z,57.50
2019-03-22T13:59:48.518Z,55.03
2019-03-22T14:02:22.912Z,57.30
2019-03-22T14:04:56.145Z,58.27
2019-03-22T14:07:30.458Z,56.33
2019-03-22T14:10:02.006Z,55.37
2019-03-22T14:12:37.258Z,56.53
2019-03-22T14:15:07.537Z,53.90
2019-03-22T14:17:38.916Z,56.30
2019-03-22T14:20:11.489Z,54.03
2019-03-22T14:22:43.149Z,56.00
2019-03-22T14:25:15.253Z,54.10
2019-03-22T14:27:47.306Z,55.73
2019-03-22T14:30:18.585Z,52.27
2019-03-22T14:32:51.158Z,55.50
2019-03-22T14:35:22.505Z,53.77
2019-03-22T14:37:56.678Z,55.53
2019-03-22T14:40:32.320Z,55.30
2019-03-22T14:43:09.925Z,54.73
2019-03-22T14:45:44.375Z,54.53
2019-03-22T14:48:15.836Z,54.87
2019-03-22T14:50:47.255Z,62.13
2019-03-22T14:53:18.723Z,59.13
2019-03-22T14:55:50.144Z,52.00
2019-03-22T14:58:21.537Z,52.07
2019-03-22T15:00:53.046Z,45.23
2019-03-22T15:03:27.667Z,47.50
2019-03-22T15:06:00.651Z,53.60
2019-03-22T15:08:33.745Z,53.87
2019-03-22T15:11:05.217Z,54.37
2019-03-22T15:13:58.770Z,54.47
2019-03-22T15:17:01.163Z,42.70
2019-03-22T15:19:51.502Z,40.53
2019-03-22T15:23:00.232Z,41.77
2019-03-22T15:26:02.903Z,41.63
2019-03-22T15:28:59.327Z,44.67
2019-03-22T15:31:42.621Z,44.67
2019-03-22T15:34:47.822Z,45.07
2019-03-22T15:37:50.548Z,48.50
2019-03-22T15:40:21.953Z,51.47
2019-03-22T15:42:53.366Z,50.50
2019-03-22T15:45:25.798Z,51.80
2019-03-22T15:47:57.128Z,46.77
2019-03-22T15:50:29.833Z,51.30
2019-03-22T15:53:01.146Z,50.60
2019-03-22T15:55:32.621Z,53.57
2019-03-22T15:58:06.242Z,56.03
2019-03-22T16:00:43.270Z,53.53
2019-03-22T16:03:22.669Z,53.73
2019-03-22T16:05:59.143Z,59.77
2019-03-22T16:08:35.470Z,54.77
2019-03-22T16:11:15.113Z,57.80
2019-03-22T16:13:54.065Z,55.57
2019-03-22T16:16:32.515Z,53.90
2019-03-22T16:19:08.742Z,56.83
2019-03-22T16:21:46.079Z,60.53
2019-03-22T16:24:26.975Z,59.60
2019-03-22T16:27:04.523Z,57.53
2019-03-22T16:29:43.685Z,58.10
2019-03-22T16:32:41.129Z,57.27
2019-03-22T16:35:25.350Z,54.50
2019-03-22T16:38:00.126Z,59.63
2019-03-22T16:44:47.910Z,58.90
2019-03-22T16:47:23.749Z,63.07
2019-03-22T16:49:59.467Z,68.17
2019-03-22T16:52:44.737Z,56.93
2019-03-22T16:55:24.407Z,62.37
2019-03-22T16:58:01.103Z,64.53
2019-03-22T17:00:37.068Z,57.57
2019-03-22T17:03:14.637Z,60.33
2019-03-22T17:05:55.764Z,65.83
2019-03-22T17:08:31.854Z,63.77
2019-03-22T17:11:10.422Z,58.80
2019-03-22T17:13:48.448Z,57.37
2019-03-22T17:16:24.840Z,62.40
2019-03-22T17:19:10.228Z,55.67
2019-03-22T17:21:46.374Z,57.13
2019-03-22T17:24:24.455Z,56.97
2019-03-22T17:27:02.295Z,59.30
2019-03-22T17:29:38.484Z,61.90
2019-03-22T17:32:14.496Z,62.47
2019-03-22T17:34:50.649Z,63.60
2019-03-22T17:37:29.955Z,58.97
2019-03-22T17:40:06.261Z,63.27
2019-03-22T17:42:44.729Z,59.20
2019-03-22T17:45:24.996Z,58.53
2019-03-22T17:48:04.211Z,62.40
2019-03-22T17:50:40.283Z,59.97
2019-03-22T17:53:17.419Z,60.23
2019-03-22T17:55:53.281Z,63.93
2019-03-22T17:58:29.309Z,60.53
2019-03-22T18:01:05.775Z,63.97
2019-03-22T18:03:42.916Z,62.10
2019-03-22T18:06:20.226Z,60.57
2019-03-22T18:08:57.802Z,63.43
2019-03-22T18:11:42.269Z,73.93
2019-03-22T18:14:55.356Z,70.00
2019-03-22T18:23:50.629Z,105.93
2019-03-22T18:26:24.672Z,118.10
2019-03-22T18:28:57.575Z,129.20
2019-03-22T18:31:29.092Z,135.13
2019-03-22T18:34:02.866Z,142.20
2019-03-22T18:36:34.642Z,140.07
2019-03-22T18:39:10.290Z,146.90
2019-03-22T18:41:41.694Z,146.80
2019-03-22T18:44:15.222Z,151.13
2019-03-22T18:46:48.830Z,164.93
2019-03-22T18:53:20.738Z,155.13
2019-03-22T18:55:58.986Z,161.23
2019-03-22T18:58:35.270Z,157.50
2019-03-22T19:01:12.556Z,161.00
2019-03-22T19:04:13.949Z,159.83
2019-03-22T19:06:57.879Z,153.00
2019-03-22T19:09:33.964Z,149.43
2019-03-22T19:12:11.379Z,159.43
2019-03-22T19:14:47.119Z,161.97
2019-03-22T19:17:26.339Z,151.07
2019-03-22T19:20:03.277Z,162.70
2019-03-22T19:22:44.549Z,149.03
2019-03-22T19:25:22.868Z,155.97
2019-03-22T19:28:02.507Z,165.10
2019-03-22T19:30:41.991Z,170.53
2019-03-22T19:33:20.418Z,166.23
2019-03-22T19:35:58.255Z,164.10
2019-03-22T19:38:37.122Z,162.73
2019-03-22T19:41:16.126Z,162.83
2019-03-22T19:43:55.603Z,164.07
2019-03-22T19:46:34.538Z,162.37
2019-03-22T19:49:12.808Z,156.93
2019-03-22T19:51:48.844Z,162.63
2019-03-22T19:54:25.357Z,165.40
2019-03-22T19:57:02.698Z,164.53
2019-03-22T19:59:39.248Z,167.47
2019-03-22T20:02:16.827Z,164.00
2019-03-22T20:04:53.697Z,176.17
2019-03-22T20:07:30.070Z,177.93
2019-03-22T20:10:06.849Z,161.13
2019-03-22T20:12:45.215Z,187.40
2019-03-22T20:15:23.160Z,187.30
2019-03-22T20:18:03.806Z,198.50
2019-03-22T20:20:40.528Z,204.20
2019-03-22T20:23:16.785Z,192.07
2019-03-22T20:25:58.336Z,197.03
2019-03-22T20:28:34.961Z,206.57
2019-03-22T20:31:15.358Z,204.40
2019-03-22T20:33:54.535Z,217.00
2019-03-22T20:36:43.977Z,241.30
2019-03-22T20:39:23.527Z,241.83
2019-03-22T20:42:01.473Z,248.10
2019-03-22T20:44:36.305Z,238.73
2019-03-22T20:47:13.501Z,266.63
2019-03-22T20:49:48.982Z,238.83
2019-03-22T20:52:26.302Z,252.47
2019-03-22T20:55:02.214Z,274.17
2019-03-22T20:57:38.118Z,308.87
2019-03-22T21:00:16.399Z,310.07
2019-03-22T21:02:54.030Z,333.33
2019-03-22T21:05:41.354Z,344.60
2019-03-22T21:08:23.612Z,308.30
2019-03-22T21:11:03.272Z,325.10
2019-03-22T21:13:43.827Z,337.43
2019-03-22T21:16:27.551Z,311.30
2019-03-22T21:19:32.799Z,302.03
2019-03-22T21:22:14.351Z,289.60
2019-03-22T21:24:55.397Z,329.43
2019-03-22T21:27:38.504Z,340.70
2019-03-22T21:30:16.101Z,362.47
2019-03-22T21:32:56.645Z,338.20
2019-03-22T21:35:37.350Z,371.40
2019-03-22T21:38:11.486Z,366.93
2019-03-22T21:40:51.210Z,360.60
2019-03-22T21:43:27.309Z,377.47
2019-03-22T21:46:05.004Z,365.87
2019-03-22T21:48:42.515Z,365.60
2019-03-22T21:51:20.343Z,338.83
2019-03-22T21:54:00.044Z,348.50
2019-03-22T21:56:36.117Z,333.73
2019-03-22T21:59:15.429Z,331.67
2019-03-22T22:01:51.702Z,343.00
2019-03-22T22:04:29.675Z,332.43
2019-03-22T22:07:05.671Z,341.33
2019-03-22T22:09:43.944Z,315.50
2019-03-22T22:12:16.236Z,314.63
2019-03-22T22:14:47.532Z,323.73
2019-03-22T22:17:18.882Z,316.33
2019-03-22T22:19:50.276Z,312.90
2019-03-22T22:22:26.555Z,346.07
2019-03-22T22:25:02.934Z,321.33
2019-03-22T22:27:39.655Z,322.10
2019-03-22T22:30:16.320Z,295.70
2019-03-22T22:32:53.561Z,298.33
2019-03-22T22:35:29.965Z,295.50
2019-03-22T22:38:05.457Z,290.67
2019-03-22T22:40:41.500Z,298.50
2019-03-22T22:43:15.548Z,286.37
2019-03-22T22:45:50.158Z,311.50
2019-03-22T22:48:24.911Z,286.20
2019-03-22T22:50:59.765Z,292.80
2019-03-22T22:53:31.768Z,295.13
2019-03-22T22:56:03.182Z,292.00
2019-03-22T22:58:35.474Z,255.67
2019-03-22T23:01:06.828Z,276.20
2019-03-22T23:03:38.297Z,285.90
2019-03-22T23:06:13.083Z,262.43
2019-03-22T23:08:44.604Z,275.17
2019-03-22T23:11:18.923Z,267.60
2019-03-22T23:13:50.244Z,260.47
2019-03-22T23:16:21.540Z,268.83
2019-03-22T23:18:52.839Z,249.60
2019-03-22T23:21:24.187Z,222.57
2019-03-22T23:23:55.594Z,197.07
2019-03-22T23:26:37.658Z,196.00
2019-03-22T23:29:07.851Z,181.10
2019-03-22T23:31:39.222Z,163.17
2019-03-22T23:34:10.531Z,155.03
2019-03-22T23:37:07.279Z,157.37
2019-03-22T23:39:40.277Z,150.77
2019-03-22T23:42:11.542Z,141.77
2019-03-22T23:44:42.825Z,138.37
2019-03-22T23:47:15.108Z,142.83
2019-03-22T23:49:46.436Z,142.07
2019-03-22T23:52:17.713Z,134.57
2019-03-22T23:54:49.053Z,135.13
2019-03-22T23:57:20.491Z,133.30
2019-03-22T23:59:51.833Z,132.23
